FW0689 Weather Reports


Display with metric or nautical units.
time (UTC)temp
F
wind
direction
speed
MPH
gust
MPH
rain 1hr
in
rain 24hr
in
rain mn
in
humidity
%
barometer
mb
20240527162909 62 317 8.0 11.0 0.00 0.01 0.01 37 1020.6
20240527161912 63 315 7.0 12.0 0.00 0.01 0.01 38 1020.5
20240527160008 65 292 5.0 6.0 0.00 0.01 0.01 43 1020.4
20240527155013 65 263 5.0 7.0 0.00 0.01 0.01 43 1020.5
20240527152009 64 283 5.0 7.0 0.00 0.01 0.01 42 1020.8
20240527151010 64 257 5.0 8.0 0.00 0.01 0.01 43 1020.9
20240527145010 64 262 5.0 8.0 0.00 0.01 0.01 42 1021.0
20240527144009 64 255 4.0 7.0 0.00 0.01 0.01 42 1021.1
20240527141910 64 279 5.0 8.0 0.00 0.01 0.01 42 1020.8
20240527135910 65 268 8.0 10.0 0.00 0.01 0.01 43 1021.0
20240527135008 65 236 5.0 9.0 0.00 0.01 0.01 43 1020.9
20240527134025 66 246 6.0 9.0 0.00 0.01 0.01 43 1021.0
20240527132109 67 270 6.0 8.0 0.00 0.01 0.01 43 1021.2
20240527131109 67 271 5.0 7.0 0.00 0.01 0.01 42 1021.2
20240527131012 66 212 4.0 7.0 0.00 0.01 0.01 42 1021.2
20240527125909 66 203 3.0 5.0 0.00 0.01 0.01 41 1021.2
20240527124910 66 205 4.0 7.0 0.00 0.01 0.01 41 1021.3
20240527123909 65 209 5.0 9.0 0.00 0.01 0.01 39 1021.4
20240527122909 63 240 3.0 4.0 0.00 0.01 0.01 40 1021.5
20240527121911 64 279 3.0 6.0 0.00 0.01 0.01 41 1021.5
20240527120910 65 235 3.0 7.0 0.00 0.01 0.01 42 1021.5
20240527115809 66 236 6.0 9.0 0.00 0.01 0.01 41 1021.5
20240527114725 65 220 6.0 10.0 0.00 0.01 0.01 39 1021.6
20240527112611 64 249 6.0 8.0 0.00 0.01 0.01 38 1021.8
20240527111610 64 217 3.0 5.0 0.00 0.01 0.01 36 1021.7
20240527110609 64 216 5.0 8.0 0.00 0.01 0.01 36 1021.8
20240527105709 64 224 3.0 6.0 0.00 0.01 0.01 35 1021.8
20240527104710 64 231 5.0 8.0 0.00 0.01 0.01 34 1021.8
20240527101810 65 198 8.0 11.0 0.00 0.01 0.01 36 1021.7
20240527100810 65 196 4.0 11.0 0.00 0.01 0.01 33 1021.7
20240527095812 64 218 4.0 7.0 0.00 0.01 0.01 32 1021.7
20240527093811 63 218 4.0 6.0 0.00 0.01 0.01 31 1021.8
20240527092810 62 224 4.0 9.0 0.00 0.01 0.01 29 1021.7
20240527091909 61 234 3.0 4.0 0.00 0.01 0.01 28 1021.7
20240527090910 62 229 6.0 9.0 0.00 0.01 0.01 30 1021.8
20240527090008 63 255 6.0 10.0 0.00 0.01 0.01 29 1021.8
20240527085010 62 226 3.0 7.0 0.00 0.01 0.01 29 1021.7
20240527083109 62 230 5.0 8.0 0.00 0.01 0.01 27 1021.7
20240527082111 61 251 6.0 9.0 0.00 0.01 0.01 25 1021.7
20240527081209 61 269 4.0 8.0 0.00 0.01 0.01 24 1021.7
20240527080209 60 233 6.0 11.0 0.00 0.01 0.01 22 1021.8
20240527075209 60 264 4.0 9.0 0.00 0.01 0.01 22 1021.8
20240527074211 60 243 5.0 7.0 0.00 0.01 0.01 21 1021.7
20240527071208 60 239 8.0 11.0 0.00 0.01 0.01 18 1021.5
20240527070210 59 246 4.0 7.0 0.00 0.01 0.01 16 1021.5
20240527065211 58 253 7.0 10.0 0.00 0.01 0.01 15 1021.7
20240527064309 58 242 6.0 7.0 0.00 0.01 0.01 13 1021.6
20240527063309 58 259 3.0 6.0 0.00 0.01 0.01 13 1021.5
20240527062325 57 225 2.0 4.0 0.00 0.01 0.01 15 1021.5
20240527060409 57 202 4.0 6.0 0.00 0.01 0.01 15 1021.4
20240527054425 57 212 3.0 6.0 0.00 0.01 0.01 16 1021.2
20240527053508 57 202 2.0 4.0 0.00 0.01 0.01 16 1021.2
20240527052510 56 209 3.0 6.0 0.00 0.01 0.01 16 1021.0
20240527051609 56 202 3.0 4.0 0.00 0.01 0.01 17 1021.0
20240527050609 56 202 4.0 6.0 0.00 0.01 0.01 17 1021.1
20240527045610 56 199 4.0 5.0 0.00 0.01 0.01 17 1020.8
20240527044610 56 195 4.0 5.0 0.00 0.01 0.01 17 1020.9
20240527042610 56 202 1.0 2.0 0.00 0.01 0.01 18 1020.7
20240527041610 56 202 3.0 4.0 0.01 0.01 0.01 18 1020.6
20240527040612 55 204 1.0 3.0 0.01 0.01 0.01 18 1020.6
20240527035611 55 202 0.0 1.0 0.01 0.01 0.01 17 1020.6
20240527034710 55 202 2.0 3.0 0.01 0.01 0.01 18 1020.5
20240527033709 55 202 0.0 0.0 0.01 0.01 0.01 17 1020.3
20240527031711 55 112 0.0 0.0 0.00 0.00 0.00 17 1020.5
20240527030709 55 200 1.0 2.0 0.00 0.00 0.00 18 1020.4
20240527025710 55 206 3.0 4.0 0.00 0.00 0.00 18 1020.4
20240527024724 55 215 2.0 4.0 0.00 0.00 0.00 18 1020.3
20240527023710 55 202 0.0 0.0 0.00 0.00 0.00 18 1020.3
20240527022710 54 200 2.0 3.0 0.00 0.00 0.00 18 1020.2
20240527022611 54 202 2.0 4.0 0.00 0.00 0.00 18 1020.3
20240527021609 54 188 2.0 3.0 0.00 0.00 0.00 17 1020.4
20240527020611 54 112 2.0 2.0 0.00 0.00 0.00 17 1020.3
20240527015608 54 112 2.0 3.0 0.00 0.00 0.00 17 1020.2
20240527014608 54 112 0.0 1.0 0.00 0.00 0.00 17 1020.2
20240527013611 54 112 2.0 3.0 0.00 0.00 0.00 18 1020.2
20240527012609 53 112 2.0 3.0 0.00 0.00 0.00 18 1020.3
20240527011611 53 112 2.0 2.0 0.00 0.00 0.00 18 1020.2
20240527005610 54 112 2.0 3.0 0.00 0.00 0.00 17 1020.1
20240527004409 54 112 2.0 2.0 0.00 0.00 0.00 17 1020.3
20240527003410 55 125 1.0 2.0 0.00 0.00 0.00 17 1020.3
20240527002410 55 128 2.0 3.0 0.00 0.00 0.00 17 1020.2
20240527000410 55 145 0.0 1.0 0.00 0.00 0.00 17 1020.1
20240526235410 55 180 1.0 2.0 0.00 0.00 0.00 17 1020.1
20240526232509 56 202 2.0 3.0 0.00 0.00 0.00 15 1020.1
20240526231409 56 134 2.0 3.0 0.00 0.00 0.00 16 1020.3
20240526230508 56 186 4.0 5.0 0.00 0.00 0.00 16 1020.3
20240526225510 56 183 3.0 5.0 0.00 0.00 0.00 16 1020.1
20240526224511 56 202 2.0 3.0 0.00 0.00 0.00 16 1020.1
20240526223609 56 202 3.0 4.0 0.00 0.00 0.00 16 1020.0
20240526222610 56 219 2.0 4.0 0.00 0.00 0.00 16 1020.1
20240526221610 56 206 3.0 5.0 0.00 0.00 0.00 16 1020.1
20240526220609 56 202 4.0 6.0 0.00 0.00 0.00 16 1019.9
20240526215617 56 203 3.0 4.0 0.00 0.00 0.00 16 1020.0
20240526214618 56 202 3.0 5.0 0.00 0.00 0.00 16 1019.7
20240526211616 57 202 3.0 4.0 0.00 0.00 0.00 15 1019.8
20240526210620 57 216 5.0 8.0 0.00 0.00 0.00 16 1019.6
20240526205617 57 201 5.0 7.0 0.00 0.00 0.00 16 1019.6
20240526204618 57 206 4.0 6.0 0.00 0.00 0.00 16 1019.6
20240526203616 58 202 5.0 6.0 0.00 0.00 0.00 16 1019.5
20240526202633 58 196 5.0 7.0 0.00 0.00 0.00 16 1019.4
20240526201616 58 201 4.0 5.0 0.00 0.00 0.00 16 1019.4
20240526200617 58 201 4.0 6.0 0.00 0.00 0.00 16 1019.3
20240526195619 59 195 4.0 6.0 0.00 0.00 0.00 16 1019.1
20240526194716 59 188 5.0 7.0 0.00 0.00 0.00 16 1019.0
20240526193719 59 126 2.0 4.0 0.00 0.00 0.00 16 1018.8
20240526192816 59 187 4.0 6.0 0.00 0.00 0.00 16 1018.9
20240526191818 59 132 3.0 5.0 0.00 0.00 0.00 15 1018.6
20240526190817 59 112 3.0 4.0 0.00 0.00 0.00 17 1018.7
20240526185818 59 171 5.0 7.0 0.00 0.00 0.00 16 1019.0
20240526184818 59 193 7.0 10.0 0.00 0.00 0.00 16 1019.0
20240526183819 59 195 7.0 10.0 0.00 0.00 0.00 16 1019.4
20240526182817 59 194 7.0 10.0 0.00 0.00 0.00 16 1019.4
20240526180717 59 180 3.0 4.0 0.00 0.00 0.00 18 1018.7
20240526175717 59 112 4.0 6.0 0.00 0.00 0.00 19 1018.5
20240526173718 60 121 10.0 14.0 0.00 0.00 0.00 24 1018.9
20240526172616 64 181 12.0 17.0 0.00 0.00 0.00 33 1018.6
20240526171617 69 190 18.0 25.0 0.00 0.00 0.00 42 1018.2
20240526164716 73 128 6.0 8.0 0.00 0.00 0.00 42 1017.1